sensor_id;sensor_type;location;lat;lon;timestamp;pressure;altitude;pressure_sealevel;temperature;humidity
78411;BME280;67706;51.074;-1.796;2023-06-22T00:01:12;101429.16;;;16.14;86.26
78411;BME280;67706;51.074;-1.796;2023-06-22T00:03:38;101433.44;;;16.10;86.55
78411;BME280;67706;51.074;-1.796;2023-06-22T00:06:05;101428.50;;;16.19;86.20
78411;BME280;67706;51.074;-1.796;2023-06-22T00:08:32;101421.34;;;16.36;85.64
78411;BME280;67706;51.074;-1.796;2023-06-22T00:11:00;101420.31;;;16.37;85.39
78411;BME280;67706;51.074;-1.796;2023-06-22T00:13:26;101423.28;;;16.42;84.84
78411;BME280;67706;51.074;-1.796;2023-06-22T00:15:53;101423.13;;;16.24;85.48
78411;BME280;67706;51.074;-1.796;2023-06-22T00:18:19;101415.94;;;16.16;85.31
78411;BME280;67706;51.074;-1.796;2023-06-22T00:20:46;101418.31;;;16.13;85.42
78411;BME280;67706;51.074;-1.796;2023-06-22T00:23:13;101419.13;;;16.20;85.19
78411;BME280;67706;51.074;-1.796;2023-06-22T00:25:42;101421.53;;;16.03;85.49
78411;BME280;67706;51.074;-1.796;2023-06-22T00:28:10;101424.13;;;15.98;85.41
78411;BME280;67706;51.074;-1.796;2023-06-22T00:30:37;101410.09;;;15.86;85.93
78411;BME280;67706;51.074;-1.796;2023-06-22T00:33:04;101410.97;;;15.87;85.70
78411;BME280;67706;51.074;-1.796;2023-06-22T00:35:33;101411.00;;;15.74;86.03
78411;BME280;67706;51.074;-1.796;2023-06-22T00:38:00;101409.97;;;15.68;86.27
78411;BME280;67706;51.074;-1.796;2023-06-22T00:40:29;101409.53;;;15.65;86.45
78411;BME280;67706;51.074;-1.796;2023-06-22T00:42:56;101409.78;;;15.57;86.18
78411;BME280;67706;51.074;-1.796;2023-06-22T00:45:25;101403.22;;;15.45;85.72
78411;BME280;67706;51.074;-1.796;2023-06-22T00:47:52;101395.59;;;15.14;86.13
78411;BME280;67706;51.074;-1.796;2023-06-22T00:50:21;101392.59;;;14.96;86.28
78411;BME280;67706;51.074;-1.796;2023-06-22T00:52:51;101406.44;;;14.83;86.65
78411;BME280;67706;51.074;-1.796;2023-06-22T00:55:18;101402.56;;;14.64;87.28
78411;BME280;67706;51.074;-1.796;2023-06-22T00:57:46;101417.03;;;14.73;87.78
78411;BME280;67706;51.074;-1.796;2023-06-22T01:00:14;101419.16;;;14.71;87.45
78411;BME280;67706;51.074;-1.796;2023-06-22T01:02:44;101421.06;;;14.77;87.54
78411;BME280;67706;51.074;-1.796;2023-06-22T01:05:12;101420.25;;;14.76;87.29
78411;BME280;67706;51.074;-1.796;2023-06-22T01:07:42;101426.59;;;14.83;86.91
78411;BME280;67706;51.074;-1.796;2023-06-22T01:10:17;101419.38;;;14.76;86.91
78411;BME280;67706;51.074;-1.796;2023-06-22T01:12:48;101436.81;;;14.83;86.93
78411;BME280;67706;51.074;-1.796;2023-06-22T01:15:21;101433.63;;;14.92;86.36
78411;BME280;67706;51.074;-1.796;2023-06-22T01:17:52;101424.91;;;14.89;86.55
78411;BME280;67706;51.074;-1.796;2023-06-22T01:20:20;101433.41;;;14.74;87.01
78411;BME280;67706;51.074;-1.796;2023-06-22T01:23:05;101430.19;;;14.77;87.21
78411;BME280;67706;51.074;-1.796;2023-06-22T01:25:37;101427.22;;;14.66;87.85
78411;BME280;67706;51.074;-1.796;2023-06-22T01:28:23;101428.94;;;14.80;87.41
78411;BME280;67706;51.074;-1.796;2023-06-22T01:30:53;101425.97;;;14.88;88.00
78411;BME280;67706;51.074;-1.796;2023-06-22T01:33:29;101428.31;;;14.97;87.63
78411;BME280;67706;51.074;-1.796;2023-06-22T01:35:58;101435.13;;;15.01;87.04
78411;BME280;67706;51.074;-1.796;2023-06-22T01:38:26;101427.66;;;15.02;86.78
78411;BME280;67706;51.074;-1.796;2023-06-22T01:40:54;101425.34;;;14.99;86.81
78411;BME280;67706;51.074;-1.796;2023-06-22T01:43:21;101431.09;;;14.97;87.00
78411;BME280;67706;51.074;-1.796;2023-06-22T01:45:50;101431.91;;;14.91;87.48
78411;BME280;67706;51.074;-1.796;2023-06-22T01:48:19;101426.59;;;14.77;87.63
78411;BME280;67706;51.074;-1.796;2023-06-22T01:50:46;101425.75;;;14.70;87.06
78411;BME280;67706;51.074;-1.796;2023-06-22T01:53:13;101426.78;;;14.69;87.01
78411;BME280;67706;51.074;-1.796;2023-06-22T01:55:39;101444.22;;;14.69;86.99
78411;BME280;67706;51.074;-1.796;2023-06-22T01:58:06;101440.59;;;14.62;86.68
78411;BME280;67706;51.074;-1.796;2023-06-22T02:00:36;101437.13;;;14.34;87.74
78411;BME280;67706;51.074;-1.796;2023-06-22T02:03:08;101440.50;;;14.29;87.81
78411;BME280;67706;51.074;-1.796;2023-06-22T02:05:41;101444.97;;;14.37;87.58
78411;BME280;67706;51.074;-1.796;2023-06-22T02:08:11;101452.78;;;14.27;88.30
78411;BME280;67706;51.074;-1.796;2023-06-22T02:10:42;101446.69;;;14.31;88.62
78411;BME280;67706;51.074;-1.796;2023-06-22T02:13:11;101447.97;;;14.36;88.64
78411;BME280;67706;51.074;-1.796;2023-06-22T02:15:39;101445.66;;;14.52;87.87
78411;BME280;67706;51.074;-1.796;2023-06-22T02:18:06;101451.00;;;14.47;87.94
78411;BME280;67706;51.074;-1.796;2023-06-22T02:20:37;101445.44;;;14.54;87.78
78411;BME280;67706;51.074;-1.796;2023-06-22T02:23:04;101442.06;;;14.45;87.70
78411;BME280;67706;51.074;-1.796;2023-06-22T02:25:31;101442.41;;;14.29;87.99
78411;BME280;67706;51.074;-1.796;2023-06-22T02:27:58;101449.03;;;14.35;87.95
78411;BME280;67706;51.074;-1.796;2023-06-22T02:30:25;101439.69;;;14.36;87.86
78411;BME280;67706;51.074;-1.796;2023-06-22T02:32:51;101448.19;;;14.41;87.46
78411;BME280;67706;51.074;-1.796;2023-06-22T02:35:24;101459.09;;;14.62;87.33
78411;BME280;67706;51.074;-1.796;2023-06-22T02:37:52;101439.09;;;14.53;87.06
78411;BME280;67706;51.074;-1.796;2023-06-22T02:40:19;101449.94;;;14.61;87.13
78411;BME280;67706;51.074;-1.796;2023-06-22T02:42:46;101449.50;;;14.64;87.15
78411;BME280;67706;51.074;-1.796;2023-06-22T02:45:13;101440.59;;;14.69;87.30
78411;BME280;67706;51.074;-1.796;2023-06-22T02:47:39;101453.38;;;14.70;87.23
78411;BME280;67706;51.074;-1.796;2023-06-22T02:50:06;101451.66;;;14.69;87.19
78411;BME280;67706;51.074;-1.796;2023-06-22T02:52:33;101449.13;;;14.74;86.67
78411;BME280;67706;51.074;-1.796;2023-06-22T02:55:01;101456.31;;;14.68;87.30
78411;BME280;67706;51.074;-1.796;2023-06-22T02:57:29;101444.66;;;14.60;86.86
78411;BME280;67706;51.074;-1.796;2023-06-22T02:59:56;101438.66;;;14.43;87.98
78411;BME280;67706;51.074;-1.796;2023-06-22T03:02:22;101438.22;;;14.46;88.26
78411;BME280;67706;51.074;-1.796;2023-06-22T03:04:49;101429.25;;;14.31;86.67
78411;BME280;67706;51.074;-1.796;2023-06-22T03:07:18;101436.38;;;14.12;85.63
78411;BME280;67706;51.074;-1.796;2023-06-22T03:09:45;101438.41;;;13.91;86.06
78411;BME280;67706;51.074;-1.796;2023-06-22T03:12:13;101427.72;;;13.75;86.24
78411;BME280;67706;51.074;-1.796;2023-06-22T03:14:40;101429.16;;;13.64;86.21
78411;BME280;67706;51.074;-1.796;2023-06-22T03:17:06;101436.03;;;13.47;86.82
78411;BME280;67706;51.074;-1.796;2023-06-22T03:19:33;101424.78;;;13.42;87.00
78411;BME280;67706;51.074;-1.796;2023-06-22T03:22:00;101428.75;;;13.33;87.46
78411;BME280;67706;51.074;-1.796;2023-06-22T03:24:27;101435.28;;;13.25;87.82
78411;BME280;67706;51.074;-1.796;2023-06-22T03:26:55;101430.56;;;13.19;88.33
78411;BME280;67706;51.074;-1.796;2023-06-22T03:29:23;101429.66;;;13.12;88.56
78411;BME280;67706;51.074;-1.796;2023-06-22T03:31:50;101423.94;;;13.14;88.06
78411;BME280;67706;51.074;-1.796;2023-06-22T03:34:17;101428.16;;;13.10;87.69
78411;BME280;67706;51.074;-1.796;2023-06-22T03:36:44;101419.09;;;12.95;88.11
78411;BME280;67706;51.074;-1.796;2023-06-22T03:39:11;101425.88;;;12.92;88.07
78411;BME280;67706;51.074;-1.796;2023-06-22T03:41:38;101412.41;;;12.83;88.36
78411;BME280;67706;51.074;-1.796;2023-06-22T03:44:05;101414.88;;;12.71;89.20
78411;BME280;67706;51.074;-1.796;2023-06-22T03:46:33;101405.47;;;12.65;89.47
78411;BME280;67706;51.074;-1.796;2023-06-22T03:48:59;101405.03;;;12.62;90.08
78411;BME280;67706;51.074;-1.796;2023-06-22T03:51:28;101407.19;;;12.66;89.49
78411;BME280;67706;51.074;-1.796;2023-06-22T03:53:55;101419.53;;;12.70;89.32
78411;BME280;67706;51.074;-1.796;2023-06-22T03:56:21;101412.72;;;12.66;89.51
78411;BME280;67706;51.074;-1.796;2023-06-22T03:58:48;101415.00;;;12.63;89.21
78411;BME280;67706;51.074;-1.796;2023-06-22T04:01:15;101424.75;;;12.65;89.37
78411;BME280;67706;51.074;-1.796;2023-06-22T04:03:43;101422.00;;;12.65;89.26
78411;BME280;67706;51.074;-1.796;2023-06-22T04:06:10;101425.69;;;12.72;89.35
78411;BME280;67706;51.074;-1.796;2023-06-22T04:08:37;101424.69;;;12.80;89.38
78411;BME280;67706;51.074;-1.796;2023-06-22T04:11:03;101423.94;;;12.93;88.78
78411;BME280;67706;51.074;-1.796;2023-06-22T04:13:30;101425.44;;;12.95;89.27
78411;BME280;67706;51.074;-1.796;2023-06-22T04:15:57;101420.44;;;13.26;88.05
78411;BME280;67706;51.074;-1.796;2023-06-22T04:18:24;101431.66;;;13.25;88.51
78411;BME280;67706;51.074;-1.796;2023-06-22T04:20:51;101436.34;;;13.31;88.58
78411;BME280;67706;51.074;-1.796;2023-06-22T04:23:18;101439.13;;;13.31;89.09
78411;BME280;67706;51.074;-1.796;2023-06-22T04:25:45;101431.66;;;13.25;89.33
78411;BME280;67706;51.074;-1.796;2023-06-22T04:28:12;101432.03;;;13.22;89.15
78411;BME280;67706;51.074;-1.796;2023-06-22T04:30:38;101423.50;;;13.38;89.14
78411;BME280;67706;51.074;-1.796;2023-06-22T04:33:12;101418.38;;;13.35;88.94
78411;BME280;67706;51.074;-1.796;2023-06-22T04:35:39;101411.09;;;13.55;88.97
78411;BME280;67706;51.074;-1.796;2023-06-22T04:38:11;101418.50;;;13.54;88.92
78411;BME280;67706;51.074;-1.796;2023-06-22T04:40:38;101421.53;;;13.66;88.75
78411;BME280;67706;51.074;-1.796;2023-06-22T04:43:05;101425.31;;;13.59;89.37
78411;BME280;67706;51.074;-1.796;2023-06-22T04:45:32;101428.16;;;13.78;89.15
78411;BME280;67706;51.074;-1.796;2023-06-22T04:47:58;101427.78;;;13.88;89.31
78411;BME280;67706;51.074;-1.796;2023-06-22T04:50:25;101425.06;;;13.94;89.39
78411;BME280;67706;51.074;-1.796;2023-06-22T04:52:52;101431.44;;;14.01;89.31
78411;BME280;67706;51.074;-1.796;2023-06-22T04:55:20;101431.91;;;14.05;89.71
78411;BME280;67706;51.074;-1.796;2023-06-22T04:57:47;101429.19;;;14.11;89.56
78411;BME280;67706;51.074;-1.796;2023-06-22T05:00:15;101434.84;;;14.03;89.79
78411;BME280;67706;51.074;-1.796;2023-06-22T05:02:44;101438.00;;;13.94;91.15
78411;BME280;67706;51.074;-1.796;2023-06-22T05:05:11;101438.63;;;13.89;92.87
78411;BME280;67706;51.074;-1.796;2023-06-22T05:07:41;101435.81;;;13.83;92.63
78411;BME280;67706;51.074;-1.796;2023-06-22T05:10:10;101436.31;;;13.99;91.75
78411;BME280;67706;51.074;-1.796;2023-06-22T05:12:39;101434.03;;;14.03;91.86
78411;BME280;67706;51.074;-1.796;2023-06-22T05:15:07;101436.16;;;14.07;91.74
78411;BME280;67706;51.074;-1.796;2023-06-22T05:17:35;101430.66;;;14.14;91.84
78411;BME280;67706;51.074;-1.796;2023-06-22T05:20:02;101436.72;;;14.30;91.38
78411;BME280;67706;51.074;-1.796;2023-06-22T05:22:31;101437.19;;;14.47;90.13
78411;BME280;67706;51.074;-1.796;2023-06-22T05:24:58;101435.88;;;14.37;90.59
78411;BME280;67706;51.074;-1.796;2023-06-22T05:27:25;101442.69;;;14.54;90.19
78411;BME280;67706;51.074;-1.796;2023-06-22T05:29:53;101441.81;;;14.40;90.20
78411;BME280;67706;51.074;-1.796;2023-06-22T05:32:19;101446.41;;;14.26;91.59
78411;BME280;67706;51.074;-1.796;2023-06-22T05:34:46;101446.41;;;14.26;92.05
78411;BME280;67706;51.074;-1.796;2023-06-22T05:37:13;101443.44;;;14.21;92.34
78411;BME280;67706;51.074;-1.796;2023-06-22T05:39:40;101455.81;;;14.32;92.13
78411;BME280;67706;51.074;-1.796;2023-06-22T05:42:07;101458.34;;;14.33;92.06
78411;BME280;67706;51.074;-1.796;2023-06-22T05:44:34;101453.28;;;14.30;92.12
78411;BME280;67706;51.074;-1.796;2023-06-22T05:47:02;101458.63;;;14.45;91.34
78411;BME280;67706;51.074;-1.796;2023-06-22T05:49:29;101462.25;;;14.59;90.71
78411;BME280;67706;51.074;-1.796;2023-06-22T05:51:58;101466.09;;;14.58;90.87
78411;BME280;67706;51.074;-1.796;2023-06-22T05:54:25;101466.72;;;14.60;91.12
78411;BME280;67706;51.074;-1.796;2023-06-22T05:56:51;101471.81;;;14.63;90.63
78411;BME280;67706;51.074;-1.796;2023-06-22T05:59:18;101458.41;;;14.47;90.97
78411;BME280;67706;51.074;-1.796;2023-06-22T06:01:45;101478.84;;;14.72;90.98
78411;BME280;67706;51.074;-1.796;2023-06-22T06:04:16;101483.97;;;14.88;90.14
78411;BME280;67706;51.074;-1.796;2023-06-22T06:06:43;101477.84;;;15.05;88.79
78411;BME280;67706;51.074;-1.796;2023-06-22T06:09:10;101479.31;;;14.88;89.81
78411;BME280;67706;51.074;-1.796;2023-06-22T06:11:37;101480.78;;;14.78;90.75
78411;BME280;67706;51.074;-1.796;2023-06-22T06:14:04;101474.63;;;15.02;90.09
78411;BME280;67706;51.074;-1.796;2023-06-22T06:16:30;101466.34;;;15.08;88.99
78411;BME280;67706;51.074;-1.796;2023-06-22T06:18:57;101455.09;;;15.17;88.73
78411;BME280;67706;51.074;-1.796;2023-06-22T06:21:28;101455.75;;;15.12;89.17
78411;BME280;67706;51.074;-1.796;2023-06-22T06:23:55;101456.16;;;15.16;89.47
78411;BME280;67706;51.074;-1.796;2023-06-22T06:26:22;101458.06;;;15.41;88.01
78411;BME280;67706;51.074;-1.796;2023-06-22T06:28:53;101457.88;;;15.49;87.58
78411;BME280;67706;51.074;-1.796;2023-06-22T06:31:19;101455.53;;;15.20;89.20
78411;BME280;67706;51.074;-1.796;2023-06-22T06:33:46;101462.31;;;15.24;89.37
78411;BME280;67706;51.074;-1.796;2023-06-22T06:36:13;101459.78;;;15.23;89.16
78411;BME280;67706;51.074;-1.796;2023-06-22T06:38:42;101456.38;;;15.47;88.24
78411;BME280;67706;51.074;-1.796;2023-06-22T06:41:08;101457.25;;;15.47;88.41
78411;BME280;67706;51.074;-1.796;2023-06-22T06:43:35;101445.31;;;15.53;88.19
78411;BME280;67706;51.074;-1.796;2023-06-22T06:46:02;101443.56;;;15.65;88.15
78411;BME280;67706;51.074;-1.796;2023-06-22T06:48:28;101441.63;;;15.85;87.03
78411;BME280;67706;51.074;-1.796;2023-06-22T06:50:55;101442.66;;;15.91;86.78
78411;BME280;67706;51.074;-1.796;2023-06-22T06:53:22;101444.06;;;16.07;86.61
78411;BME280;67706;51.074;-1.796;2023-06-22T06:55:50;101445.56;;;16.09;86.09
78411;BME280;67706;51.074;-1.796;2023-06-22T06:58:16;101451.13;;;16.03;86.29
78411;BME280;67706;51.074;-1.796;2023-06-22T07:00:43;101460.84;;;16.25;85.99
78411;BME280;67706;51.074;-1.796;2023-06-22T07:03:10;101450.19;;;16.22;86.16
78411;BME280;67706;51.074;-1.796;2023-06-22T07:05:37;101448.66;;;16.32;86.39
78411;BME280;67706;51.074;-1.796;2023-06-22T07:08:03;101451.16;;;16.40;86.02
78411;BME280;67706;51.074;-1.796;2023-06-22T07:10:30;101453.50;;;16.43;86.18
78411;BME280;67706;51.074;-1.796;2023-06-22T07:12:58;101462.97;;;16.29;87.29
78411;BME280;67706;51.074;-1.796;2023-06-22T07:15:25;101458.66;;;16.40;87.56
78411;BME280;67706;51.074;-1.796;2023-06-22T07:17:52;101456.50;;;16.42;87.42
78411;BME280;67706;51.074;-1.796;2023-06-22T07:20:19;101460.31;;;16.41;87.71
78411;BME280;67706;51.074;-1.796;2023-06-22T07:22:45;101461.97;;;16.48;87.85
78411;BME280;67706;51.074;-1.796;2023-06-22T07:25:12;101456.91;;;16.45;87.74
78411;BME280;67706;51.074;-1.796;2023-06-22T07:27:44;101452.03;;;16.41;88.47
78411;BME280;67706;51.074;-1.796;2023-06-22T07:30:13;101449.72;;;16.38;88.56
78411;BME280;67706;51.074;-1.796;2023-06-22T07:32:40;101436.88;;;16.43;88.40
78411;BME280;67706;51.074;-1.796;2023-06-22T07:35:07;101428.50;;;16.63;87.81
78411;BME280;67706;51.074;-1.796;2023-06-22T07:37:34;101436.75;;;16.69;87.83
78411;BME280;67706;51.074;-1.796;2023-06-22T07:40:01;101443.38;;;16.68;88.23
78411;BME280;67706;51.074;-1.796;2023-06-22T07:42:31;101450.69;;;16.88;87.42
78411;BME280;67706;51.074;-1.796;2023-06-22T07:44:59;101439.84;;;17.11;86.50
78411;BME280;67706;51.074;-1.796;2023-06-22T07:47:28;101444.41;;;16.99;86.72
78411;BME280;67706;51.074;-1.796;2023-06-22T07:49:55;101440.28;;;17.08;86.59
78411;BME280;67706;51.074;-1.796;2023-06-22T07:52:23;101432.44;;;17.29;85.94
78411;BME280;67706;51.074;-1.796;2023-06-22T07:54:51;101438.34;;;17.15;86.52
78411;BME280;67706;51.074;-1.796;2023-06-22T07:57:17;101446.00;;;17.37;85.90
78411;BME280;67706;51.074;-1.796;2023-06-22T07:59:44;101440.13;;;17.52;85.33
78411;BME280;67706;51.074;-1.796;2023-06-22T08:02:11;101440.69;;;17.61;85.00
78411;BME280;67706;51.074;-1.796;2023-06-22T08:04:42;101438.78;;;17.61;84.76
78411;BME280;67706;51.074;-1.796;2023-06-22T08:07:09;101431.31;;;17.80;84.04
78411;BME280;67706;51.074;-1.796;2023-06-22T08:09:36;101437.75;;;18.10;83.33
78411;BME280;67706;51.074;-1.796;2023-06-22T08:12:03;101437.47;;;18.18;82.75
78411;BME280;67706;51.074;-1.796;2023-06-22T08:14:30;101436.81;;;18.16;82.49
78411;BME280;67706;51.074;-1.796;2023-06-22T08:16:56;101441.28;;;18.35;81.59
78411;BME280;67706;51.074;-1.796;2023-06-22T08:19:23;101445.81;;;18.66;80.69
78411;BME280;67706;51.074;-1.796;2023-06-22T08:21:51;101448.16;;;18.80;79.72
78411;BME280;67706;51.074;-1.796;2023-06-22T08:24:18;101448.41;;;18.90;79.35
78411;BME280;67706;51.074;-1.796;2023-06-22T08:26:44;101451.13;;;18.67;79.91
78411;BME280;67706;51.074;-1.796;2023-06-22T08:29:11;101460.41;;;18.91;79.63
78411;BME280;67706;51.074;-1.796;2023-06-22T08:31:38;101450.78;;;18.75;79.58
78411;BME280;67706;51.074;-1.796;2023-06-22T08:34:04;101445.13;;;18.82;79.25
78411;BME280;67706;51.074;-1.796;2023-06-22T08:36:31;101444.13;;;19.18;79.00
78411;BME280;67706;51.074;-1.796;2023-06-22T08:39:01;101443.03;;;19.19;78.43
78411;BME280;67706;51.074;-1.796;2023-06-22T08:41:28;101441.72;;;19.33;78.15
78411;BME280;67706;51.074;-1.796;2023-06-22T08:43:56;101433.47;;;19.15;77.97
78411;BME280;67706;51.074;-1.796;2023-06-22T08:46:23;101440.22;;;18.95;78.99
78411;BME280;67706;51.074;-1.796;2023-06-22T08:48:55;101440.69;;;18.92;79.97
78411;BME280;67706;51.074;-1.796;2023-06-22T08:51:22;101439.59;;;18.93;79.63
78411;BME280;67706;51.074;-1.796;2023-06-22T08:53:48;101439.63;;;19.05;79.52
78411;BME280;67706;51.074;-1.796;2023-06-22T08:56:17;101438.56;;;19.18;79.07
78411;BME280;67706;51.074;-1.796;2023-06-22T08:58:44;101439.28;;;19.01;80.07
78411;BME280;67706;51.074;-1.796;2023-06-22T09:01:10;101437.56;;;19.00;80.19
78411;BME280;67706;51.074;-1.796;2023-06-22T09:03:37;101439.47;;;18.88;80.70
78411;BME280;67706;51.074;-1.796;2023-06-22T09:06:04;101433.84;;;19.30;79.51
78411;BME280;67706;51.074;-1.796;2023-06-22T09:08:31;101437.25;;;19.32;78.74
78411;BME280;67706;51.074;-1.796;2023-06-22T09:10:58;101437.88;;;19.34;78.91
78411;BME280;67706;51.074;-1.796;2023-06-22T09:13:27;101443.84;;;19.37;79.14
78411;BME280;67706;51.074;-1.796;2023-06-22T09:15:54;101443.44;;;19.57;78.32
78411;BME280;67706;51.074;-1.796;2023-06-22T09:18:21;101450.34;;;19.77;77.14
78411;BME280;67706;51.074;-1.796;2023-06-22T09:20:48;101439.69;;;19.86;77.67
78411;BME280;67706;51.074;-1.796;2023-06-22T09:23:14;101446.78;;;20.05;77.18
78411;BME280;67706;51.074;-1.796;2023-06-22T09:25:41;101442.94;;;20.06;76.05
78411;BME280;67706;51.074;-1.796;2023-06-22T09:28:08;101448.19;;;20.19;75.37
78411;BME280;67706;51.074;-1.796;2023-06-22T09:30:36;101451.00;;;20.19;74.95
78411;BME280;67706;51.074;-1.796;2023-06-22T09:33:03;101443.78;;;20.46;74.22
78411;BME280;67706;51.074;-1.796;2023-06-22T09:35:29;101444.19;;;20.67;72.48
78411;BME280;67706;51.074;-1.796;2023-06-22T09:37:56;101440.00;;;21.09;71.79
78411;BME280;67706;51.074;-1.796;2023-06-22T09:40:22;101433.81;;;21.40;69.34
78411;BME280;67706;51.074;-1.796;2023-06-22T09:42:49;101439.06;;;21.20;67.57
78411;BME280;67706;51.074;-1.796;2023-06-22T09:45:16;101433.31;;;21.26;66.17
78411;BME280;67706;51.074;-1.796;2023-06-22T09:47:44;101435.59;;;21.29;66.25
78411;BME280;67706;51.074;-1.796;2023-06-22T09:50:10;101435.84;;;21.45;67.06
78411;BME280;67706;51.074;-1.796;2023-06-22T09:52:37;101437.88;;;21.32;66.47
78411;BME280;67706;51.074;-1.796;2023-06-22T09:55:04;101451.00;;;21.15;67.09
78411;BME280;67706;51.074;-1.796;2023-06-22T09:57:31;101448.38;;;21.25;65.43
78411;BME280;67706;51.074;-1.796;2023-06-22T09:59:58;101440.16;;;21.52;63.93
78411;BME280;67706;51.074;-1.796;2023-06-22T10:02:24;101447.00;;;21.61;62.70
78411;BME280;67706;51.074;-1.796;2023-06-22T10:04:52;101436.44;;;21.63;63.92
78411;BME280;67706;51.074;-1.796;2023-06-22T10:07:19;101437.94;;;21.54;61.86
78411;BME280;67706;51.074;-1.796;2023-06-22T10:09:45;101428.72;;;21.54;61.88
78411;BME280;67706;51.074;-1.796;2023-06-22T10:12:12;101427.69;;;21.93;60.62
78411;BME280;67706;51.074;-1.796;2023-06-22T10:14:39;101426.22;;;22.12;60.10
78411;BME280;67706;51.074;-1.796;2023-06-22T10:17:05;101426.91;;;22.19;58.89
78411;BME280;67706;51.074;-1.796;2023-06-22T10:19:33;101436.13;;;22.63;58.35
78411;BME280;67706;51.074;-1.796;2023-06-22T10:22:04;101434.34;;;22.57;56.92
78411;BME280;67706;51.074;-1.796;2023-06-22T10:24:31;101436.16;;;22.46;55.92
78411;BME280;67706;51.074;-1.796;2023-06-22T10:26:58;101435.63;;;22.71;55.53
78411;BME280;67706;51.074;-1.796;2023-06-22T10:29:25;101431.94;;;22.92;54.02
78411;BME280;67706;51.074;-1.796;2023-06-22T10:31:51;101433.00;;;22.86;52.77
78411;BME280;67706;51.074;-1.796;2023-06-22T10:34:18;101434.63;;;23.09;53.44
78411;BME280;67706;51.074;-1.796;2023-06-22T10:36:45;101434.94;;;23.12;53.34
78411;BME280;67706;51.074;-1.796;2023-06-22T10:39:15;101441.81;;;23.31;52.04
78411;BME280;67706;51.074;-1.796;2023-06-22T10:41:42;101435.91;;;23.28;52.90
78411;BME280;67706;51.074;-1.796;2023-06-22T10:44:08;101431.31;;;23.12;54.33
78411;BME280;67706;51.074;-1.796;2023-06-22T10:46:35;101433.31;;;23.16;53.96
78411;BME280;67706;51.074;-1.796;2023-06-22T10:49:02;101429.38;;;23.17;53.73
78411;BME280;67706;51.074;-1.796;2023-06-22T10:51:28;101430.59;;;23.26;53.63
78411;BME280;67706;51.074;-1.796;2023-06-22T10:53:56;101439.00;;;23.31;54.42
78411;BME280;67706;51.074;-1.796;2023-06-22T10:56:24;101432.59;;;23.31;54.27
78411;BME280;67706;51.074;-1.796;2023-06-22T10:58:51;101424.09;;;23.52;53.76
78411;BME280;67706;51.074;-1.796;2023-06-22T11:01:18;101439.72;;;23.43;53.45
78411;BME280;67706;51.074;-1.796;2023-06-22T11:03:44;101439.06;;;23.68;53.08
78411;BME280;67706;51.074;-1.796;2023-06-22T11:06:11;101443.13;;;23.50;54.32
78411;BME280;67706;51.074;-1.796;2023-06-22T11:08:38;101439.09;;;23.36;54.85
78411;BME280;67706;51.074;-1.796;2023-06-22T11:11:08;101434.66;;;23.40;51.56
78411;BME280;67706;51.074;-1.796;2023-06-22T11:13:36;101436.72;;;23.55;52.08
78411;BME280;67706;51.074;-1.796;2023-06-22T11:16:03;101443.94;;;23.46;52.29
78411;BME280;67706;51.074;-1.796;2023-06-22T11:18:31;101428.34;;;23.60;50.08
78411;BME280;67706;51.074;-1.796;2023-06-22T11:20:59;101433.31;;;23.95;50.03
78411;BME280;67706;51.074;-1.796;2023-06-22T11:23:25;101423.94;;;24.16;48.06
78411;BME280;67706;51.074;-1.796;2023-06-22T11:25:53;101420.25;;;24.05;49.24
78411;BME280;67706;51.074;-1.796;2023-06-22T11:28:20;101430.00;;;23.98;50.28
78411;BME280;67706;51.074;-1.796;2023-06-22T11:30:48;101430.19;;;23.86;51.18
78411;BME280;67706;51.074;-1.796;2023-06-22T11:33:15;101429.84;;;23.78;51.37
78411;BME280;67706;51.074;-1.796;2023-06-22T11:35:42;101430.00;;;23.98;49.57
78411;BME280;67706;51.074;-1.796;2023-06-22T11:38:08;101429.84;;;23.73;49.29
78411;BME280;67706;51.074;-1.796;2023-06-22T11:40:35;101426.88;;;23.52;50.14
78411;BME280;67706;51.074;-1.796;2023-06-22T11:43:02;101424.25;;;23.73;49.68
78411;BME280;67706;51.074;-1.796;2023-06-22T11:45:28;101423.50;;;23.92;50.14
78411;BME280;67706;51.074;-1.796;2023-06-22T11:47:56;101424.69;;;24.01;49.36
78411;BME280;67706;51.074;-1.796;2023-06-22T11:50:23;101415.97;;;24.03;48.85
78411;BME280;67706;51.074;-1.796;2023-06-22T11:52:50;101416.13;;;24.28;47.78
78411;BME280;67706;51.074;-1.796;2023-06-22T11:55:18;101406.25;;;24.10;47.28
78411;BME280;67706;51.074;-1.796;2023-06-22T11:57:55;101409.41;;;24.34;46.68
78411;BME280;67706;51.074;-1.796;2023-06-22T12:00:24;101408.28;;;24.25;47.11
78411;BME280;67706;51.074;-1.796;2023-06-22T12:02:51;101401.78;;;24.14;46.45
78411;BME280;67706;51.074;-1.796;2023-06-22T12:05:19;101408.81;;;24.22;46.52
78411;BME280;67706;51.074;-1.796;2023-06-22T12:07:47;101393.19;;;24.36;46.60
78411;BME280;67706;51.074;-1.796;2023-06-22T12:10:14;101394.00;;;24.36;47.28
78411;BME280;67706;51.074;-1.796;2023-06-22T12:12:41;101398.81;;;24.51;45.88
78411;BME280;67706;51.074;-1.796;2023-06-22T12:15:09;101387.38;;;24.63;45.67
78411;BME280;67706;51.074;-1.796;2023-06-22T12:17:36;101382.03;;;24.66;45.95
78411;BME280;67706;51.074;-1.796;2023-06-22T12:20:04;101390.81;;;24.90;46.40
78411;BME280;67706;51.074;-1.796;2023-06-22T12:22:32;101379.00;;;24.88;46.00
78411;BME280;67706;51.074;-1.796;2023-06-22T12:24:59;101378.94;;;24.68;46.23
78411;BME280;67706;51.074;-1.796;2023-06-22T12:27:26;101378.94;;;24.68;46.09
78411;BME280;67706;51.074;-1.796;2023-06-22T12:29:53;101378.72;;;24.84;44.94
78411;BME280;67706;51.074;-1.796;2023-06-22T12:32:20;101380.97;;;24.92;45.44
78411;BME280;67706;51.074;-1.796;2023-06-22T12:34:46;101376.22;;;25.13;44.97
78411;BME280;67706;51.074;-1.796;2023-06-22T12:37:13;101382.38;;;25.15;45.60
78411;BME280;67706;51.074;-1.796;2023-06-22T12:39:41;101375.06;;;24.99;44.83
78411;BME280;67706;51.074;-1.796;2023-06-22T12:42:08;101372.84;;;25.01;44.69